sensor_id;sensor_type;location;lat;lon;timestamp;P1;durP1;ratioP1;P2;durP2;ratioP2
20855;SDS011;63058;49.424;8.420;2023-04-19T00:01:51;5.28;;;3.95;;
20855;SDS011;63058;49.424;8.420;2023-04-19T00:04:17;5.07;;;3.97;;
20855;SDS011;63058;49.424;8.420;2023-04-19T00:06:44;4.95;;;4.10;;
20855;SDS011;63058;49.424;8.420;2023-04-19T00:09:16;5.15;;;3.97;;
20855;SDS011;63058;49.424;8.420;2023-04-19T00:11:42;6.35;;;3.63;;
20855;SDS011;63058;49.424;8.420;2023-04-19T00:14:07;4.72;;;3.85;;
20855;SDS011;63058;49.424;8.420;2023-04-19T00:16:33;4.30;;;3.78;;
20855;SDS011;63058;49.424;8.420;2023-04-19T00:18:59;4.80;;;3.90;;
20855;SDS011;63058;49.424;8.420;2023-04-19T00:21:24;3.95;;;3.38;;
20855;SDS011;63058;49.424;8.420;2023-04-19T00:23:50;6.32;;;4.35;;
20855;SDS011;63058;49.424;8.420;2023-04-19T00:26:17;4.28;;;3.88;;
20855;SDS011;63058;49.424;8.420;2023-04-19T00:28:43;4.38;;;3.85;;
20855;SDS011;63058;49.424;8.420;2023-04-19T00:31:09;6.55;;;4.15;;
20855;SDS011;63058;49.424;8.420;2023-04-19T00:33:35;4.75;;;3.85;;
20855;SDS011;63058;49.424;8.420;2023-04-19T00:36:01;4.43;;;3.90;;
20855;SDS011;63058;49.424;8.420;2023-04-19T00:38:26;4.78;;;3.97;;
20855;SDS011;63058;49.424;8.420;2023-04-19T00:40:52;4.90;;;3.65;;
20855;SDS011;63058;49.424;8.420;2023-04-19T00:43:18;4.75;;;3.80;;
20855;SDS011;63058;49.424;8.420;2023-04-19T00:45:44;7.15;;;4.30;;
20855;SDS011;63058;49.424;8.420;2023-04-19T00:48:10;4.10;;;3.70;;
20855;SDS011;63058;49.424;8.420;2023-04-19T00:50:37;4.72;;;3.92;;
20855;SDS011;63058;49.424;8.420;2023-04-19T00:53:03;5.75;;;4.57;;
20855;SDS011;63058;49.424;8.420;2023-04-19T00:55:28;6.07;;;4.38;;
20855;SDS011;63058;49.424;8.420;2023-04-19T00:57:54;5.80;;;3.50;;
20855;SDS011;63058;49.424;8.420;2023-04-19T01:00:20;4.20;;;3.58;;
20855;SDS011;63058;49.424;8.420;2023-04-19T01:02:45;4.22;;;3.50;;
20855;SDS011;63058;49.424;8.420;2023-04-19T01:05:11;4.40;;;3.60;;
20855;SDS011;63058;49.424;8.420;2023-04-19T01:07:37;4.10;;;3.55;;
20855;SDS011;63058;49.424;8.420;2023-04-19T01:10:03;4.10;;;3.10;;
20855;SDS011;63058;49.424;8.420;2023-04-19T01:12:29;4.82;;;3.45;;
20855;SDS011;63058;49.424;8.420;2023-04-19T01:14:55;4.18;;;3.65;;
20855;SDS011;63058;49.424;8.420;2023-04-19T01:17:21;4.05;;;3.65;;
20855;SDS011;63058;49.424;8.420;2023-04-19T01:19:47;4.57;;;3.38;;
20855;SDS011;63058;49.424;8.420;2023-04-19T01:22:15;4.72;;;3.83;;
20855;SDS011;63058;49.424;8.420;2023-04-19T01:24:43;4.35;;;3.55;;
20855;SDS011;63058;49.424;8.420;2023-04-19T01:27:08;4.07;;;3.58;;
20855;SDS011;63058;49.424;8.420;2023-04-19T01:29:35;4.20;;;3.20;;
20855;SDS011;63058;49.424;8.420;2023-04-19T01:32:02;3.63;;;3.20;;
20855;SDS011;63058;49.424;8.420;2023-04-19T01:34:27;4.05;;;3.30;;
20855;SDS011;63058;49.424;8.420;2023-04-19T01:36:53;3.75;;;3.35;;
20855;SDS011;63058;49.424;8.420;2023-04-19T01:39:18;3.13;;;2.72;;
20855;SDS011;63058;49.424;8.420;2023-04-19T01:41:45;3.28;;;2.97;;
20855;SDS011;63058;49.424;8.420;2023-04-19T01:44:10;4.60;;;3.72;;
20855;SDS011;63058;49.424;8.420;2023-04-19T01:46:36;3.70;;;3.30;;
20855;SDS011;63058;49.424;8.420;2023-04-19T01:49:02;8.13;;;4.20;;
20855;SDS011;63058;49.424;8.420;2023-04-19T01:51:28;4.15;;;3.10;;
20855;SDS011;63058;49.424;8.420;2023-04-19T01:53:54;3.85;;;3.42;;
20855;SDS011;63058;49.424;8.420;2023-04-19T01:56:20;3.80;;;3.45;;
20855;SDS011;63058;49.424;8.420;2023-04-19T01:58:48;3.80;;;3.35;;
20855;SDS011;63058;49.424;8.420;2023-04-19T02:01:13;4.93;;;4.00;;
20855;SDS011;63058;49.424;8.420;2023-04-19T02:03:39;4.93;;;3.53;;
20855;SDS011;63058;49.424;8.420;2023-04-19T02:06:05;5.13;;;3.50;;
20855;SDS011;63058;49.424;8.420;2023-04-19T02:08:34;4.50;;;3.47;;
20855;SDS011;63058;49.424;8.420;2023-04-19T02:11:04;4.70;;;3.30;;
20855;SDS011;63058;49.424;8.420;2023-04-19T02:13:34;3.85;;;3.25;;
20855;SDS011;63058;49.424;8.420;2023-04-19T02:16:00;3.78;;;3.30;;
20855;SDS011;63058;49.424;8.420;2023-04-19T02:18:29;4.15;;;3.47;;
20855;SDS011;63058;49.424;8.420;2023-04-19T02:20:56;4.03;;;3.20;;
20855;SDS011;63058;49.424;8.420;2023-04-19T02:23:22;3.72;;;3.35;;
20855;SDS011;63058;49.424;8.420;2023-04-19T02:25:48;3.58;;;3.20;;
20855;SDS011;63058;49.424;8.420;2023-04-19T02:28:14;3.83;;;3.45;;
20855;SDS011;63058;49.424;8.420;2023-04-19T02:30:40;3.90;;;3.28;;
20855;SDS011;63058;49.424;8.420;2023-04-19T02:33:06;3.70;;;3.25;;
20855;SDS011;63058;49.424;8.420;2023-04-19T02:35:31;3.72;;;2.95;;
20855;SDS011;63058;49.424;8.420;2023-04-19T02:37:58;4.22;;;3.40;;
20855;SDS011;63058;49.424;8.420;2023-04-19T02:40:24;3.50;;;3.20;;
20855;SDS011;63058;49.424;8.420;2023-04-19T02:42:51;4.63;;;4.07;;
20855;SDS011;63058;49.424;8.420;2023-04-19T02:45:16;5.68;;;3.55;;
20855;SDS011;63058;49.424;8.420;2023-04-19T02:47:42;3.10;;;2.80;;
20855;SDS011;63058;49.424;8.420;2023-04-19T02:50:10;3.72;;;3.35;;
20855;SDS011;63058;49.424;8.420;2023-04-19T02:52:36;4.28;;;3.35;;
20855;SDS011;63058;49.424;8.420;2023-04-19T02:55:01;3.42;;;2.85;;
20855;SDS011;63058;49.424;8.420;2023-04-19T02:57:28;4.78;;;3.47;;
20855;SDS011;63058;49.424;8.420;2023-04-19T02:59:54;3.83;;;3.40;;
20855;SDS011;63058;49.424;8.420;2023-04-19T03:02:20;3.30;;;2.97;;
20855;SDS011;63058;49.424;8.420;2023-04-19T03:04:45;3.95;;;3.50;;
20855;SDS011;63058;49.424;8.420;2023-04-19T03:07:12;4.60;;;3.38;;
20855;SDS011;63058;49.424;8.420;2023-04-19T03:09:38;3.85;;;3.28;;
20855;SDS011;63058;49.424;8.420;2023-04-19T03:12:03;4.00;;;3.22;;
20855;SDS011;63058;49.424;8.420;2023-04-19T03:14:31;3.72;;;3.22;;
20855;SDS011;63058;49.424;8.420;2023-04-19T03:16:57;3.45;;;2.90;;
20855;SDS011;63058;49.424;8.420;2023-04-19T03:19:23;3.33;;;3.00;;
20855;SDS011;63058;49.424;8.420;2023-04-19T03:21:49;3.45;;;2.95;;
20855;SDS011;63058;49.424;8.420;2023-04-19T03:24:17;3.13;;;2.83;;
20855;SDS011;63058;49.424;8.420;2023-04-19T03:26:43;3.88;;;2.72;;
20855;SDS011;63058;49.424;8.420;2023-04-19T03:29:08;3.47;;;2.85;;
20855;SDS011;63058;49.424;8.420;2023-04-19T03:31:34;3.47;;;2.85;;
20855;SDS011;63058;49.424;8.420;2023-04-19T03:34:00;4.00;;;2.65;;
20855;SDS011;63058;49.424;8.420;2023-04-19T03:36:26;3.22;;;2.70;;
20855;SDS011;63058;49.424;8.420;2023-04-19T03:38:51;3.17;;;2.88;;
20855;SDS011;63058;49.424;8.420;2023-04-19T03:41:24;3.65;;;3.00;;
20855;SDS011;63058;49.424;8.420;2023-04-19T03:43:51;3.58;;;2.72;;
20855;SDS011;63058;49.424;8.420;2023-04-19T03:46:16;3.78;;;2.55;;
20855;SDS011;63058;49.424;8.420;2023-04-19T03:48:42;3.17;;;2.75;;
20855;SDS011;63058;49.424;8.420;2023-04-19T03:51:07;4.10;;;2.83;;
20855;SDS011;63058;49.424;8.420;2023-04-19T03:53:33;2.97;;;2.67;;
20855;SDS011;63058;49.424;8.420;2023-04-19T03:56:00;3.13;;;2.83;;
20855;SDS011;63058;49.424;8.420;2023-04-19T03:58:25;3.80;;;2.88;;
20855;SDS011;63058;49.424;8.420;2023-04-19T04:00:51;2.97;;;2.47;;
20855;SDS011;63058;49.424;8.420;2023-04-19T04:03:17;3.70;;;2.97;;
20855;SDS011;63058;49.424;8.420;2023-04-19T04:05:43;3.20;;;2.60;;
20855;SDS011;63058;49.424;8.420;2023-04-19T04:08:09;3.72;;;3.25;;
20855;SDS011;63058;49.424;8.420;2023-04-19T04:10:35;3.08;;;2.78;;
20855;SDS011;63058;49.424;8.420;2023-04-19T04:13:00;3.25;;;2.95;;
20855;SDS011;63058;49.424;8.420;2023-04-19T04:15:26;4.10;;;3.13;;
20855;SDS011;63058;49.424;8.420;2023-04-19T04:17:51;4.47;;;3.55;;
20855;SDS011;63058;49.424;8.420;2023-04-19T04:20:17;4.68;;;3.58;;
20855;SDS011;63058;49.424;8.420;2023-04-19T04:22:43;3.88;;;3.33;;
20855;SDS011;63058;49.424;8.420;2023-04-19T04:25:12;4.25;;;3.17;;
20855;SDS011;63058;49.424;8.420;2023-04-19T04:27:39;4.30;;;3.42;;
20855;SDS011;63058;49.424;8.420;2023-04-19T04:30:06;3.47;;;3.05;;
20855;SDS011;63058;49.424;8.420;2023-04-19T04:32:33;3.55;;;3.25;;
20855;SDS011;63058;49.424;8.420;2023-04-19T04:35:02;3.20;;;2.80;;
20855;SDS011;63058;49.424;8.420;2023-04-19T04:37:32;3.30;;;2.90;;
20855;SDS011;63058;49.424;8.420;2023-04-19T04:39:59;3.15;;;2.75;;
20855;SDS011;63058;49.424;8.420;2023-04-19T04:42:25;4.60;;;2.67;;
20855;SDS011;63058;49.424;8.420;2023-04-19T04:44:51;3.13;;;2.83;;
20855;SDS011;63058;49.424;8.420;2023-04-19T04:47:18;3.75;;;3.10;;
20855;SDS011;63058;49.424;8.420;2023-04-19T04:49:45;4.50;;;3.85;;
20855;SDS011;63058;49.424;8.420;2023-04-19T04:52:11;5.30;;;4.47;;
20855;SDS011;63058;49.424;8.420;2023-04-19T04:54:36;6.00;;;4.00;;
20855;SDS011;63058;49.424;8.420;2023-04-19T04:57:02;5.30;;;3.67;;
20855;SDS011;63058;49.424;8.420;2023-04-19T04:59:28;5.63;;;4.15;;
20855;SDS011;63058;49.424;8.420;2023-04-19T05:01:53;6.88;;;4.15;;
20855;SDS011;63058;49.424;8.420;2023-04-19T05:04:19;6.20;;;5.22;;
20855;SDS011;63058;49.424;8.420;2023-04-19T05:06:44;5.90;;;4.90;;
20855;SDS011;63058;49.424;8.420;2023-04-19T05:09:10;6.43;;;4.50;;
20855;SDS011;63058;49.424;8.420;2023-04-19T05:11:36;5.78;;;4.28;;
20855;SDS011;63058;49.424;8.420;2023-04-19T05:14:02;4.38;;;3.70;;
20855;SDS011;63058;49.424;8.420;2023-04-19T05:16:28;4.63;;;3.92;;
20855;SDS011;63058;49.424;8.420;2023-04-19T05:18:54;4.28;;;3.88;;
20855;SDS011;63058;49.424;8.420;2023-04-19T05:21:20;5.53;;;3.63;;
20855;SDS011;63058;49.424;8.420;2023-04-19T05:23:46;5.22;;;3.88;;
20855;SDS011;63058;49.424;8.420;2023-04-19T05:26:11;5.82;;;4.20;;
20855;SDS011;63058;49.424;8.420;2023-04-19T05:28:39;5.38;;;4.00;;
20855;SDS011;63058;49.424;8.420;2023-04-19T05:31:05;5.00;;;3.88;;
20855;SDS011;63058;49.424;8.420;2023-04-19T05:33:32;5.25;;;4.13;;
20855;SDS011;63058;49.424;8.420;2023-04-19T05:35:58;5.93;;;4.55;;
20855;SDS011;63058;49.424;8.420;2023-04-19T05:38:24;5.90;;;4.78;;
20855;SDS011;63058;49.424;8.420;2023-04-19T05:40:49;5.60;;;4.63;;
20855;SDS011;63058;49.424;8.420;2023-04-19T05:43:15;6.05;;;4.63;;
20855;SDS011;63058;49.424;8.420;2023-04-19T05:45:41;6.13;;;5.00;;
20855;SDS011;63058;49.424;8.420;2023-04-19T05:48:06;7.18;;;5.47;;
20855;SDS011;63058;49.424;8.420;2023-04-19T05:50:32;6.93;;;4.78;;
20855;SDS011;63058;49.424;8.420;2023-04-19T05:53:00;7.22;;;5.25;;
20855;SDS011;63058;49.424;8.420;2023-04-19T05:55:25;6.97;;;5.22;;
20855;SDS011;63058;49.424;8.420;2023-04-19T05:57:51;5.35;;;4.43;;
20855;SDS011;63058;49.424;8.420;2023-04-19T06:00:17;6.90;;;4.70;;
20855;SDS011;63058;49.424;8.420;2023-04-19T06:02:43;8.02;;;5.13;;
20855;SDS011;63058;49.424;8.420;2023-04-19T06:05:08;6.55;;;4.97;;
20855;SDS011;63058;49.424;8.420;2023-04-19T06:07:34;5.93;;;4.72;;
20855;SDS011;63058;49.424;8.420;2023-04-19T06:10:00;6.18;;;4.38;;
20855;SDS011;63058;49.424;8.420;2023-04-19T06:12:26;8.25;;;6.35;;
20855;SDS011;63058;49.424;8.420;2023-04-19T06:14:52;8.98;;;5.07;;
20855;SDS011;63058;49.424;8.420;2023-04-19T06:17:18;6.32;;;4.40;;
20855;SDS011;63058;49.424;8.420;2023-04-19T06:19:48;6.70;;;4.63;;
20855;SDS011;63058;49.424;8.420;2023-04-19T06:22:14;6.03;;;4.60;;
20855;SDS011;63058;49.424;8.420;2023-04-19T06:24:40;6.78;;;5.13;;
20855;SDS011;63058;49.424;8.420;2023-04-19T06:27:05;7.07;;;4.97;;
20855;SDS011;63058;49.424;8.420;2023-04-19T06:29:31;5.93;;;4.55;;
20855;SDS011;63058;49.424;8.420;2023-04-19T06:31:56;5.60;;;4.65;;
20855;SDS011;63058;49.424;8.420;2023-04-19T06:34:22;4.72;;;4.05;;
20855;SDS011;63058;49.424;8.420;2023-04-19T06:36:48;4.13;;;3.55;;
20855;SDS011;63058;49.424;8.420;2023-04-19T06:39:13;4.90;;;3.58;;
20855;SDS011;63058;49.424;8.420;2023-04-19T06:41:39;5.35;;;4.20;;
20855;SDS011;63058;49.424;8.420;2023-04-19T06:44:05;5.35;;;4.15;;
20855;SDS011;63058;49.424;8.420;2023-04-19T06:46:30;5.70;;;4.28;;
20855;SDS011;63058;49.424;8.420;2023-04-19T06:48:56;5.22;;;4.20;;
20855;SDS011;63058;49.424;8.420;2023-04-19T06:51:22;6.53;;;4.60;;
20855;SDS011;63058;49.424;8.420;2023-04-19T06:53:48;6.57;;;4.43;;
20855;SDS011;63058;49.424;8.420;2023-04-19T06:56:14;4.90;;;4.20;;
20855;SDS011;63058;49.424;8.420;2023-04-19T06:58:40;5.43;;;4.50;;
20855;SDS011;63058;49.424;8.420;2023-04-19T07:01:06;4.55;;;3.92;;
20855;SDS011;63058;49.424;8.420;2023-04-19T07:03:31;5.80;;;4.32;;
20855;SDS011;63058;49.424;8.420;2023-04-19T07:05:57;5.72;;;5.00;;
20855;SDS011;63058;49.424;8.420;2023-04-19T07:08:23;6.05;;;4.55;;
20855;SDS011;63058;49.424;8.420;2023-04-19T07:10:49;6.80;;;4.47;;
20855;SDS011;63058;49.424;8.420;2023-04-19T07:13:15;6.18;;;4.80;;
20855;SDS011;63058;49.424;8.420;2023-04-19T07:15:40;7.68;;;5.32;;
20855;SDS011;63058;49.424;8.420;2023-04-19T07:18:06;5.57;;;4.45;;
20855;SDS011;63058;49.424;8.420;2023-04-19T07:20:34;6.13;;;5.20;;
20855;SDS011;63058;49.424;8.420;2023-04-19T07:22:59;8.18;;;6.15;;
20855;SDS011;63058;49.424;8.420;2023-04-19T07:25:25;6.20;;;5.25;;
20855;SDS011;63058;49.424;8.420;2023-04-19T07:27:52;6.20;;;5.25;;
20855;SDS011;63058;49.424;8.420;2023-04-19T07:30:21;6.00;;;5.40;;
20855;SDS011;63058;49.424;8.420;2023-04-19T07:32:53;6.57;;;4.55;;
20855;SDS011;63058;49.424;8.420;2023-04-19T07:35:32;6.93;;;5.65;;
20855;SDS011;63058;49.424;8.420;2023-04-19T07:38:01;5.40;;;4.55;;
20855;SDS011;63058;49.424;8.420;2023-04-19T07:40:32;5.63;;;4.50;;
20855;SDS011;63058;49.424;8.420;2023-04-19T07:43:00;6.85;;;5.20;;
20855;SDS011;63058;49.424;8.420;2023-04-19T07:45:29;7.95;;;5.60;;
20855;SDS011;63058;49.424;8.420;2023-04-19T07:47:55;7.20;;;5.70;;
20855;SDS011;63058;49.424;8.420;2023-04-19T07:50:21;6.38;;;5.63;;
20855;SDS011;63058;49.424;8.420;2023-04-19T07:52:51;10.50;;;6.57;;
20855;SDS011;63058;49.424;8.420;2023-04-19T07:55:17;7.07;;;4.57;;
20855;SDS011;63058;49.424;8.420;2023-04-19T07:57:43;6.80;;;4.85;;
20855;SDS011;63058;49.424;8.420;2023-04-19T08:00:14;5.75;;;4.68;;
20855;SDS011;63058;49.424;8.420;2023-04-19T08:02:41;6.55;;;5.18;;
20855;SDS011;63058;49.424;8.420;2023-04-19T08:05:11;9.30;;;5.20;;
20855;SDS011;63058;49.424;8.420;2023-04-19T08:07:37;7.00;;;5.68;;
20855;SDS011;63058;49.424;8.420;2023-04-19T08:10:06;6.05;;;4.95;;
20855;SDS011;63058;49.424;8.420;2023-04-19T08:12:33;6.65;;;4.28;;
20855;SDS011;63058;49.424;8.420;2023-04-19T08:15:02;5.45;;;4.00;;
20855;SDS011;63058;49.424;8.420;2023-04-19T08:17:32;4.95;;;3.90;;
20855;SDS011;63058;49.424;8.420;2023-04-19T08:19:58;4.60;;;3.70;;
20855;SDS011;63058;49.424;8.420;2023-04-19T08:22:26;5.20;;;4.35;;
20855;SDS011;63058;49.424;8.420;2023-04-19T08:24:55;5.60;;;4.15;;
20855;SDS011;63058;49.424;8.420;2023-04-19T08:27:20;3.97;;;3.53;;
20855;SDS011;63058;49.424;8.420;2023-04-19T08:29:46;3.85;;;3.40;;
20855;SDS011;63058;49.424;8.420;2023-04-19T08:32:12;4.63;;;3.42;;
20855;SDS011;63058;49.424;8.420;2023-04-19T08:34:38;3.53;;;3.10;;
20855;SDS011;63058;49.424;8.420;2023-04-19T08:37:13;4.78;;;4.15;;
20855;SDS011;63058;49.424;8.420;2023-04-19T08:40:00;4.82;;;3.83;;
20855;SDS011;63058;49.424;8.420;2023-04-19T08:42:32;4.63;;;3.67;;
20855;SDS011;63058;49.424;8.420;2023-04-19T08:45:01;3.67;;;3.10;;
20855;SDS011;63058;49.424;8.420;2023-04-19T08:47:33;5.30;;;3.92;;
20855;SDS011;63058;49.424;8.420;2023-04-19T08:50:03;4.90;;;3.75;;
20855;SDS011;63058;49.424;8.420;2023-04-19T08:52:32;5.28;;;3.75;;
20855;SDS011;63058;49.424;8.420;2023-04-19T08:55:05;4.05;;;3.30;;
20855;SDS011;63058;49.424;8.420;2023-04-19T08:57:32;4.00;;;2.97;;
20855;SDS011;63058;49.424;8.420;2023-04-19T09:00:00;5.32;;;4.28;;
20855;SDS011;63058;49.424;8.420;2023-04-19T09:02:34;7.03;;;4.65;;
20855;SDS011;63058;49.424;8.420;2023-04-19T09:05:12;5.65;;;4.57;;
20855;SDS011;63058;49.424;8.420;2023-04-19T09:07:39;10.07;;;4.75;;
20855;SDS011;63058;49.424;8.420;2023-04-19T09:10:05;6.65;;;5.18;;
20855;SDS011;63058;49.424;8.420;2023-04-19T09:12:33;4.97;;;4.28;;
20855;SDS011;63058;49.424;8.420;2023-04-19T09:14:59;4.65;;;4.15;;
20855;SDS011;63058;49.424;8.420;2023-04-19T09:17:28;4.50;;;3.88;;
20855;SDS011;63058;49.424;8.420;2023-04-19T09:19:58;6.57;;;4.95;;
20855;SDS011;63058;49.424;8.420;2023-04-19T09:22:23;6.65;;;5.63;;
20855;SDS011;63058;49.424;8.420;2023-04-19T09:24:50;7.75;;;6.50;;
20855;SDS011;63058;49.424;8.420;2023-04-19T09:27:18;5.97;;;5.03;;
20855;SDS011;63058;49.424;8.420;2023-04-19T09:29:56;7.93;;;5.45;;
20855;SDS011;63058;49.424;8.420;2023-04-19T09:32:23;5.68;;;4.50;;
20855;SDS011;63058;49.424;8.420;2023-04-19T09:34:56;5.10;;;4.60;;
20855;SDS011;63058;49.424;8.420;2023-04-19T09:37:23;9.68;;;4.70;;
20855;SDS011;63058;49.424;8.420;2023-04-19T09:39:49;6.30;;;4.20;;
20855;SDS011;63058;49.424;8.420;2023-04-19T09:42:16;5.80;;;4.93;;
20855;SDS011;63058;49.424;8.420;2023-04-19T09:44:56;5.45;;;4.07;;
20855;SDS011;63058;49.424;8.420;2023-04-19T09:47:26;5.07;;;4.00;;
20855;SDS011;63058;49.424;8.420;2023-04-19T09:50:03;5.35;;;4.30;;
20855;SDS011;63058;49.424;8.420;2023-04-19T09:52:33;5.25;;;4.03;;
20855;SDS011;63058;49.424;8.420;2023-04-19T09:55:00;5.90;;;4.85;;
20855;SDS011;63058;49.424;8.420;2023-04-19T09:57:28;5.03;;;4.13;;
20855;SDS011;63058;49.424;8.420;2023-04-19T09:59:58;6.13;;;4.47;;
20855;SDS011;63058;49.424;8.420;2023-04-19T10:02:25;7.78;;;5.18;;
20855;SDS011;63058;49.424;8.420;2023-04-19T10:04:58;8.35;;;6.00;;
20855;SDS011;63058;49.424;8.420;2023-04-19T10:07:25;6.10;;;4.90;;
20855;SDS011;63058;49.424;8.420;2023-04-19T10:09:52;7.93;;;5.85;;
20855;SDS011;63058;49.424;8.420;2023-04-19T10:12:21;7.65;;;5.40;;
20855;SDS011;63058;49.424;8.420;2023-04-19T10:14:49;10.35;;;6.53;;
20855;SDS011;63058;49.424;8.420;2023-04-19T10:17:15;6.43;;;5.10;;
20855;SDS011;63058;49.424;8.420;2023-04-19T10:19:41;7.50;;;4.75;;
20855;SDS011;63058;49.424;8.420;2023-04-19T10:22:08;6.15;;;4.85;;
20855;SDS011;63058;49.424;8.420;2023-04-19T10:24:34;5.93;;;5.20;;
20855;SDS011;63058;49.424;8.420;2023-04-19T10:32:27;7.65;;;5.88;;
20855;SDS011;63058;49.424;8.420;2023-04-19T10:34:54;7.95;;;5.40;;
20855;SDS011;63058;49.424;8.420;2023-04-19T10:37:28;8.10;;;6.22;;
20855;SDS011;63058;49.424;8.420;2023-04-19T10:39:55;9.30;;;5.20;;
20855;SDS011;63058;49.424;8.420;2023-04-19T10:42:21;6.13;;;4.65;;
20855;SDS011;63058;49.424;8.420;2023-04-19T10:47:50;5.13;;;4.15;;
20855;SDS011;63058;49.424;8.420;2023-04-19T10:50:16;6.25;;;4.57;;
20855;SDS011;63058;49.424;8.420;2023-04-19T10:52:42;5.82;;;4.63;;
20855;SDS011;63058;49.424;8.420;2023-04-19T10:55:08;7.97;;;4.80;;
20855;SDS011;63058;49.424;8.420;2023-04-19T11:00:27;5.57;;;4.20;;
20855;SDS011;63058;49.424;8.420;2023-04-19T11:02:55;7.22;;;4.80;;
20855;SDS011;63058;49.424;8.420;2023-04-19T11:05:22;6.10;;;4.10;;
20855;SDS011;63058;49.424;8.420;2023-04-19T11:07:47;5.70;;;4.72;;
20855;SDS011;63058;49.424;8.420;2023-04-19T11:10:14;9.07;;;4.60;;
20855;SDS011;63058;49.424;8.420;2023-04-19T11:12:53;9.52;;;5.20;;
20855;SDS011;63058;49.424;8.420;2023-04-19T11:15:21;5.88;;;4.57;;
20855;SDS011;63058;49.424;8.420;2023-04-19T11:17:51;7.80;;;4.63;;
20855;SDS011;63058;49.424;8.420;2023-04-19T11:20:16;10.40;;;6.13;;
20855;SDS011;63058;49.424;8.420;2023-04-19T11:22:46;8.07;;;5.53;;
20855;SDS011;63058;49.424;8.420;2023-04-19T11:25:21;5.32;;;4.32;;
20855;SDS011;63058;49.424;8.420;2023-04-19T11:27:51;6.07;;;4.47;;
20855;SDS011;63058;49.424;8.420;2023-04-19T11:30:21;7.18;;;4.75;;
20855;SDS011;63058;49.424;8.420;2023-04-19T11:32:53;5.72;;;4.53;;
20855;SDS011;63058;49.424;8.420;2023-04-19T11:35:20;3.95;;;3.28;;
20855;SDS011;63058;49.424;8.420;2023-04-19T11:37:47;8.00;;;6.00;;
20855;SDS011;63058;49.424;8.420;2023-04-19T11:40:14;6.50;;;5.00;;
20855;SDS011;63058;49.424;8.420;2023-04-19T11:42:41;5.47;;;3.53;;
20855;SDS011;63058;49.424;8.420;2023-04-19T11:45:08;4.15;;;3.05;;
20855;SDS011;63058;49.424;8.420;2023-04-19T11:47:34;8.73;;;3.15;;
20855;SDS011;63058;49.424;8.420;2023-04-19T11:50:29;7.85;;;4.90;;
20855;SDS011;63058;49.424;8.420;2023-04-19T11:52:56;8.63;;;5.10;;
20855;SDS011;63058;49.424;8.420;2023-04-19T11:55:22;4.85;;;3.97;;
20855;SDS011;63058;49.424;8.420;2023-04-19T11:57:48;5.53;;;3.75;;
20855;SDS011;63058;49.424;8.420;2023-04-19T12:00:14;6.35;;;3.78;;
20855;SDS011;63058;49.424;8.420;2023-04-19T12:02:43;3.67;;;3.05;;
20855;SDS011;63058;49.424;8.420;2023-04-19T12:05:13;4.20;;;3.30;;
20855;SDS011;63058;49.424;8.420;2023-04-19T12:10:27;5.40;;;4.28;;
20855;SDS011;63058;49.424;8.420;2023-04-19T12:12:55;7.43;;;3.10;;
20855;SDS011;63058;49.424;8.420;2023-04-19T12:15:20;5.25;;;3.83;;
20855;SDS011;63058;49.424;8.420;2023-04-19T12:17:58;6.03;;;4.00;;
20855;SDS011;63058;49.424;8.420;2023-04-19T12:20:32;3.65;;;3.10;;
20855;SDS011;63058;49.424;8.420;2023-04-19T12:22:59;3.65;;;2.85;;
20855;SDS011;63058;49.424;8.420;2023-04-19T12:27:54;4.55;;;2.97;;
20855;SDS011;63058;49.424;8.420;2023-04-19T12:30:20;5.68;;;3.30;;
20855;SDS011;63058;49.424;8.420;2023-04-19T12:32:46;3.50;;;2.83;;
20855;SDS011;63058;49.424;8.420;2023-04-19T12:35:11;3.88;;;3.25;;
20855;SDS011;63058;49.424;8.420;2023-04-19T12:37:37;3.47;;;2.60;;
20855;SDS011;63058;49.424;8.420;2023-04-19T12:40:03;3.67;;;2.63;;
20855;SDS011;63058;49.424;8.420;2023-04-19T12:42:29;3.25;;;2.30;;
20855;SDS011;63058;49.424;8.420;2023-04-19T12:44:54;4.00;;;2.83;;
20855;SDS011;63058;49.424;8.420;2023-04-19T12:47:20;3.03;;;2.15;;
20855;SDS011;63058;49.424;8.420;2023-04-19T12:49:46;5.65;;;3.70;;
20855;SDS011;63058;49.424;8.420;2023-04-19T12:52:12;4.50;;;2.80;;
20855;SDS011;63058;49.424;8.420;2023-04-19T12:54:37;3.88;;;3.00;;
20855;SDS011;63058;49.424;8.420;2023-04-19T12:57:03;4.35;;;2.38;;
20855;SDS011;63058;49.424;8.420;2023-04-19T12:59:28;3.17;;;2.85;;
20855;SDS011;63058;49.424;8.420;2023-04-19T13:01:54;2.67;;;2.25;;
20855;SDS011;63058;49.424;8.420;2023-04-19T13:04:20;3.72;;;3.00;;
20855;SDS011;63058;49.424;8.420;2023-04-19T13:06:45;4.53;;;2.80;;
20855;SDS011;63058;49.424;8.420;2023-04-19T13:09:11;5.93;;;2.47;;
20855;SDS011;63058;49.424;8.420;2023-04-19T13:11:37;2.70;;;2.38;;
20855;SDS011;63058;49.424;8.420;2023-04-19T13:14:02;3.58;;;2.60;;
20855;SDS011;63058;49.424;8.420;2023-04-19T13:16:28;5.00;;;2.75;;
20855;SDS011;63058;49.424;8.420;2023-04-19T13:18:53;2.85;;;2.55;;
20855;SDS011;63058;49.424;8.420;2023-04-19T13:21:19;3.17;;;2.67;;
20855;SDS011;63058;49.424;8.420;2023-04-19T13:23:46;3.53;;;2.45;;
20855;SDS011;63058;49.424;8.420;2023-04-19T13:26:12;3.38;;;2.67;;
20855;SDS011;63058;49.424;8.420;2023-04-19T13:28:40;3.60;;;2.10;;
20855;SDS011;63058;49.424;8.420;2023-04-19T13:31:06;4.00;;;2.40;;
20855;SDS011;63058;49.424;8.420;2023-04-19T13:33:32;3.92;;;2.20;;
20855;SDS011;63058;49.424;8.420;2023-04-19T13:35:58;3.28;;;2.47;;
20855;SDS011;63058;49.424;8.420;2023-04-19T13:38:24;4.30;;;2.58;;
20855;SDS011;63058;49.424;8.420;2023-04-19T13:40:49;2.28;;;1.90;;
20855;SDS011;63058;49.424;8.420;2023-04-19T13:43:15;3.95;;;2.45;;
20855;SDS011;63058;49.424;8.420;2023-04-19T13:45:41;3.13;;;2.30;;
20855;SDS011;63058;49.424;8.420;2023-04-19T13:48:06;2.13;;;1.90;;
20855;SDS011;63058;49.424;8.420;2023-04-19T13:50:32;4.90;;;2.45;;
20855;SDS011;63058;49.424;8.420;2023-04-19T13:52:57;2.50;;;1.80;;
20855;SDS011;63058;49.424;8.420;2023-04-19T13:55:23;2.70;;;2.00;;
20855;SDS011;63058;49.424;8.420;2023-04-19T13:57:50;2.83;;;1.95;;
20855;SDS011;63058;49.424;8.420;2023-04-19T14:00:16;3.53;;;2.55;;
20855;SDS011;63058;49.424;8.420;2023-04-19T14:02:42;2.95;;;1.98;;
20855;SDS011;63058;49.424;8.420;2023-04-19T14:05:08;3.13;;;2.30;;
20855;SDS011;63058;49.424;8.420;2023-04-19T14:07:34;2.42;;;1.80;;
20855;SDS011;63058;49.424;8.420;2023-04-19T14:10:00;2.92;;;1.60;;
20855;SDS011;63058;49.424;8.420;2023-04-19T14:12:26;3.95;;;2.13;;
20855;SDS011;63058;49.424;8.420;2023-04-19T14:14:51;3.55;;;2.20;;
20855;SDS011;63058;49.424;8.420;2023-04-19T14:17:17;3.22;;;2.53;;
20855;SDS011;63058;49.424;8.420;2023-04-19T14:19:43;4.90;;;2.38;;
20855;SDS011;63058;49.424;8.420;2023-04-19T14:22:08;4.85;;;2.50;;
20855;SDS011;63058;49.424;8.420;2023-04-19T14:24:34;2.85;;;2.00;;
20855;SDS011;63058;49.424;8.420;2023-04-19T14:26:59;3.65;;;2.20;;
20855;SDS011;63058;49.424;8.420;2023-04-19T14:29:25;3.40;;;1.50;;
20855;SDS011;63058;49.424;8.420;2023-04-19T14:31:51;2.92;;;1.40;;
20855;SDS011;63058;49.424;8.420;2023-04-19T14:34:16;2.30;;;1.50;;
20855;SDS011;63058;49.424;8.420;2023-04-19T14:36:42;3.40;;;1.40;;
20855;SDS011;63058;49.424;8.420;2023-04-19T14:39:07;3.13;;;1.48;;
20855;SDS011;63058;49.424;8.420;2023-04-19T14:41:33;1.90;;;1.30;;
20855;SDS011;63058;49.424;8.420;2023-04-19T14:43:58;2.88;;;1.70;;
20855;SDS011;63058;49.424;8.420;2023-04-19T14:46:24;2.08;;;1.48;;
20855;SDS011;63058;49.424;8.420;2023-04-19T14:48:50;2.13;;;1.58;;
20855;SDS011;63058;49.424;8.420;2023-04-19T14:51:15;3.10;;;1.42;;
20855;SDS011;63058;49.424;8.420;2023-04-19T14:53:41;4.20;;;2.10;;
20855;SDS011;63058;49.424;8.420;2023-04-19T14:56:06;3.28;;;1.65;;
20855;SDS011;63058;49.424;8.420;2023-04-19T14:58:32;0.95;;;0.90;;
20855;SDS011;63058;49.424;8.420;2023-04-19T15:00:58;2.53;;;1.10;;
20855;SDS011;63058;49.424;8.420;2023-04-19T15:03:23;2.70;;;1.08;;